Time;durP1;ratioP1;P1;durP2;ratioP2;P2;SDS_P1;SDS_P2;PMS_P1;PMS_P2;Temp;Humidity;BMP_temperature;BMP_pressure;BME280_temperature;BME280_humidity;BME280_pressure;Samples;Min_cycle;Max_cycle;Signal;HPM_P1;HPM_P2
2022/05/05 00:01:59;;;;;;;;;14.00;8.75;;;;;;;;5104979;27;61865;-79
2022/05/05 00:04:24;;;;;;;;;15.25;10.50;;;;;;;;5104965;27;61801;-79
2022/05/05 00:06:50;;;;;;;;;12.50;10.50;;;;;;;;5104075;27;62768;-80
2022/05/05 00:09:15;;;;;;;;;11.75;11.75;;;;;;;;5103371;27;61801;-80
2022/05/05 00:14:27;;;;;;;;;11.00;9.75;;;;;;;;5104561;27;61911;-79
2022/05/05 00:16:53;;;;;;;;;10.50;8.50;;;;;;;;5103111;27;61860;-79
2022/05/05 00:19:19;;;;;;;;;15.00;10.75;;;;;;;;5104645;27;61988;-79
2022/05/05 00:21:45;;;;;;;;;12.25;8.75;;;;;;;;5102844;27;61708;-79
2022/05/05 00:24:11;;;;;;;;;16.00;9.00;;;;;;;;5104783;27;61798;-79
2022/05/05 00:26:36;;;;;;;;;6.75;5.25;;;;;;;;5102588;27;62041;-79
2022/05/05 00:29:02;;;;;;;;;10.00;10.00;;;;;;;;5104597;27;61985;-80
2022/05/05 00:31:27;;;;;;;;;10.50;5.50;;;;;;;;5103776;27;61759;-80
2022/05/05 00:33:53;;;;;;;;;11.00;10.00;;;;;;;;5104436;27;61724;-80
2022/05/05 00:36:18;;;;;;;;;9.00;7.00;;;;;;;;5102176;27;64621;-80
2022/05/05 00:38:43;;;;;;;;;5.75;5.50;;;;;;;;5103641;27;61837;-79
2022/05/05 00:41:09;;;;;;;;;11.75;8.25;;;;;;;;5104290;27;61769;-79
2022/05/05 00:43:34;;;;;;;;;8.25;6.75;;;;;;;;5104541;27;61755;-80
2022/05/05 00:46:00;;;;;;;;;10.50;6.50;;;;;;;;5103139;27;61839;-80
2022/05/05 00:48:27;;;;;;;;;10.00;4.25;;;;;;;;5104240;27;61646;-80
2022/05/05 00:50:52;;;;;;;;;6.25;5.25;;;;;;;;5102459;27;62175;-80
2022/05/05 00:53:17;;;;;;;;;11.25;5.25;;;;;;;;5104177;27;61938;-80
2022/05/05 00:55:43;;;;;;;;;7.25;6.00;;;;;;;;5103449;27;62935;-80
2022/05/05 00:58:09;;;;;;;;;10.00;4.50;;;;;;;;5103722;27;62242;-80
2022/05/05 01:00:34;;;;;;;;;7.50;4.00;;;;;;;;5102087;27;62021;-80
2022/05/05 01:03:00;;;;;;;;;5.25;5.25;;;;;;;;5103789;27;61688;-79
2022/05/05 01:05:30;;;;;;;;;5.25;3.50;;;;;;;;5103261;27;61772;-80
2022/05/05 01:07:56;;;;;;;;;6.50;5.75;;;;;;;;5101322;27;62147;-79
2022/05/05 01:10:21;;;;;;;;;8.00;6.50;;;;;;;;5103567;27;61921;-79
2022/05/05 01:12:47;;;;;;;;;12.00;5.50;;;;;;;;5103845;27;61865;-78
2022/05/05 01:15:13;;;;;;;;;6.00;6.00;;;;;;;;5102808;27;61835;-80
2022/05/05 01:17:38;;;;;;;;;7.50;4.25;;;;;;;;5103842;27;61794;-80
2022/05/05 01:20:14;;;;;;;;;7.25;6.00;;;;;;;;5103419;27;62065;-80
2022/05/05 01:22:39;;;;;;;;;7.50;4.50;;;;;;;;5103560;27;61680;-80
2022/05/05 01:30:32;;;;;;;;;3.50;2.25;;;;;;;;5103236;27;61790;-80
2022/05/05 01:32:58;;;;;;;;;5.75;5.75;;;;;;;;5103455;27;61770;-80
2022/05/05 01:35:23;;;;;;;;;3.75;3.25;;;;;;;;5102810;27;61953;-80
2022/05/05 01:37:48;;;;;;;;;4.50;4.00;;;;;;;;5102620;27;61867;-79
2022/05/05 01:40:14;;;;;;;;;8.25;4.00;;;;;;;;5103341;27;61844;-80
2022/05/05 01:42:39;;;;;;;;;6.75;3.00;;;;;;;;5103408;27;61821;-80
2022/05/05 01:45:05;;;;;;;;;8.00;5.75;;;;;;;;5101877;27;62975;-80
2022/05/05 01:47:30;;;;;;;;;5.25;5.25;;;;;;;;5101533;27;61903;-80
2022/05/05 01:49:59;;;;;;;;;10.25;7.00;;;;;;;;5102970;27;62185;-80
2022/05/05 01:52:25;;;;;;;;;10.50;5.75;;;;;;;;5102838;27;61943;-80
2022/05/05 01:54:50;;;;;;;;;4.00;4.00;;;;;;;;5100818;27;61826;-80
2022/05/05 01:57:15;;;;;;;;;5.75;5.25;;;;;;;;5102792;27;62013;-80
2022/05/05 01:59:41;;;;;;;;;5.50;4.75;;;;;;;;5102602;27;62174;-80
2022/05/05 02:02:06;;;;;;;;;9.50;7.00;;;;;;;;5101553;27;61881;-79
2022/05/05 02:04:31;;;;;;;;;11.00;6.00;;;;;;;;5101953;27;62775;-80
2022/05/05 02:06:56;;;;;;;;;10.00;5.50;;;;;;;;5102507;27;61868;-80
2022/05/05 02:09:22;;;;;;;;;8.25;6.50;;;;;;;;5096082;27;62005;-80
2022/05/05 02:11:47;;;;;;;;;8.25;4.25;;;;;;;;5100902;27;61890;-80
2022/05/05 02:14:12;;;;;;;;;6.00;5.00;;;;;;;;5101541;27;61801;-80
2022/05/05 02:16:38;;;;;;;;;6.75;4.00;;;;;;;;5102353;27;62172;-80
2022/05/05 02:19:03;;;;;;;;;7.50;4.00;;;;;;;;5101097;27;61932;-80
2022/05/05 02:21:28;;;;;;;;;3.00;3.00;;;;;;;;5102516;27;61714;-80
2022/05/05 02:23:53;;;;;;;;;4.00;4.00;;;;;;;;5101949;27;62015;-80
2022/05/05 02:26:19;;;;;;;;;4.25;3.00;;;;;;;;5102216;27;61750;-80
2022/05/05 02:28:44;;;;;;;;;7.25;4.50;;;;;;;;5102131;27;61944;-80
2022/05/05 02:31:09;;;;;;;;;9.50;6.75;;;;;;;;5102154;27;61695;-80
2022/05/05 02:33:34;;;;;;;;;7.75;5.00;;;;;;;;5101773;27;61811;-80
2022/05/05 02:38:44;;;;;;;;;8.25;5.00;;;;;;;;5101788;27;61673;-80
2022/05/05 02:41:09;;;;;;;;;6.00;5.00;;;;;;;;5102192;27;61773;-81
2022/05/05 02:43:34;;;;;;;;;7.50;6.50;;;;;;;;5099805;27;63817;-80
2022/05/05 02:46:00;;;;;;;;;8.50;5.25;;;;;;;;5102434;27;61996;-80
2022/05/05 02:48:25;;;;;;;;;7.00;6.00;;;;;;;;5102175;27;61749;-80
2022/05/05 02:50:50;;;;;;;;;11.50;7.25;;;;;;;;5100838;27;61796;-80
2022/05/05 02:55:59;;;;;;;;;5.50;5.50;;;;;;;;5102007;27;61771;-77
2022/05/05 02:58:27;;;;;;;;;5.25;3.50;;;;;;;;5101992;27;62109;-80
2022/05/05 03:00:52;;;;;;;;;7.00;6.25;;;;;;;;5101977;27;61830;-80
2022/05/05 03:03:17;;;;;;;;;7.00;7.00;;;;;;;;5101387;27;62577;-80
2022/05/05 03:05:43;;;;;;;;;7.75;4.50;;;;;;;;5101727;27;61870;-80
2022/05/05 03:08:08;;;;;;;;;8.00;4.25;;;;;;;;5100906;27;61868;-79
2022/05/05 03:10:33;;;;;;;;;12.75;8.00;;;;;;;;5101724;27;61796;-79
2022/05/05 03:12:58;;;;;;;;;8.00;7.25;;;;;;;;5101307;27;62614;-80
2022/05/05 03:15:24;;;;;;;;;7.75;7.00;;;;;;;;5101461;27;61937;-80
2022/05/05 03:17:50;;;;;;;;;6.00;6.00;;;;;;;;5100694;27;61813;-80
2022/05/05 03:20:15;;;;;;;;;8.00;6.75;;;;;;;;5101719;27;61981;-80
2022/05/05 03:22:41;;;;;;;;;8.00;8.00;;;;;;;;5099716;27;62461;-80
2022/05/05 03:25:06;;;;;;;;;11.25;7.25;;;;;;;;5099867;27;61756;-80
2022/05/05 03:27:35;;;;;;;;;9.25;6.50;;;;;;;;5101328;27;61697;-80
2022/05/05 03:30:00;;;;;;;;;5.75;5.75;;;;;;;;5101790;27;61704;-80
2022/05/05 03:32:25;;;;;;;;;8.75;5.75;;;;;;;;5100608;27;62639;-80
2022/05/05 03:34:50;;;;;;;;;8.50;7.25;;;;;;;;5101585;27;61763;-80
2022/05/05 03:37:16;;;;;;;;;9.00;9.00;;;;;;;;5100054;27;61834;-80
2022/05/05 03:39:41;;;;;;;;;14.00;7.00;;;;;;;;5099091;27;62213;-79
2022/05/05 03:42:06;;;;;;;;;8.75;8.75;;;;;;;;5100834;27;61829;-80
2022/05/05 03:44:32;;;;;;;;;8.00;6.25;;;;;;;;5101265;27;61995;-80
2022/05/05 03:46:57;;;;;;;;;11.25;8.25;;;;;;;;5101327;27;61752;-80
2022/05/05 03:49:22;;;;;;;;;9.00;6.25;;;;;;;;5101496;27;61740;-80
2022/05/05 03:51:48;;;;;;;;;11.25;9.75;;;;;;;;5098891;27;63854;-80
2022/05/05 03:54:13;;;;;;;;;10.00;8.75;;;;;;;;5099298;27;61885;-80
2022/05/05 03:56:38;;;;;;;;;11.25;5.25;;;;;;;;5099791;27;61955;-79
2022/05/05 03:59:04;;;;;;;;;10.50;7.00;;;;;;;;5099928;27;61843;-79
2022/05/05 04:01:29;;;;;;;;;6.75;6.75;;;;;;;;5100032;27;62053;-80
2022/05/05 04:03:54;;;;;;;;;7.75;7.25;;;;;;;;5099820;27;61811;-80
2022/05/05 04:06:20;;;;;;;;;6.75;6.75;;;;;;;;5099510;27;62365;-80
2022/05/05 04:08:45;;;;;;;;;7.50;5.00;;;;;;;;5099816;27;61908;-80
2022/05/05 04:11:10;;;;;;;;;9.50;7.50;;;;;;;;5098835;27;62059;-80
2022/05/05 04:13:36;;;;;;;;;8.75;6.50;;;;;;;;5099501;27;61785;-80
2022/05/05 04:16:02;;;;;;;;;4.75;4.50;;;;;;;;5102240;27;61775;-80
2022/05/05 04:18:27;;;;;;;;;7.75;4.50;;;;;;;;5101292;27;61721;-79
2022/05/05 04:20:53;;;;;;;;;8.75;5.00;;;;;;;;5098493;27;63855;-79
2022/05/05 04:23:18;;;;;;;;;8.50;6.25;;;;;;;;5098813;27;61877;-80
2022/05/05 04:25:44;;;;;;;;;10.00;5.25;;;;;;;;5100854;27;61781;-80
2022/05/05 04:28:11;;;;;;;;;4.50;4.50;;;;;;;;5099850;27;61800;-80
2022/05/05 04:30:37;;;;;;;;;7.25;4.00;;;;;;;;5100016;27;61920;-80
2022/05/05 04:33:03;;;;;;;;;6.25;6.00;;;;;;;;5101228;27;61746;-80
2022/05/05 04:35:29;;;;;;;;;8.75;7.75;;;;;;;;5104325;27;61907;-80
2022/05/05 04:37:54;;;;;;;;;8.00;7.25;;;;;;;;5101846;27;61939;-80
2022/05/05 04:40:19;;;;;;;;;12.50;9.25;;;;;;;;5102271;27;63030;-80
2022/05/05 04:42:45;;;;;;;;;12.00;9.00;;;;;;;;5104242;27;62006;-79
2022/05/05 04:45:11;;;;;;;;;12.50;6.25;;;;;;;;5104461;27;61937;-80
2022/05/05 04:47:36;;;;;;;;;8.00;8.00;;;;;;;;5104048;27;61802;-80
2022/05/05 04:50:02;;;;;;;;;8.00;6.50;;;;;;;;5103314;27;62739;-80
2022/05/05 04:52:27;;;;;;;;;10.75;7.00;;;;;;;;5101710;27;62220;-80
2022/05/05 04:54:53;;;;;;;;;11.50;9.25;;;;;;;;5103948;27;61724;-80
2022/05/05 04:57:19;;;;;;;;;15.25;12.00;;;;;;;;5104321;27;61754;-79
2022/05/05 04:59:44;;;;;;;;;8.25;7.25;;;;;;;;5103167;27;62162;-79
2022/05/05 05:02:10;;;;;;;;;11.00;10.00;;;;;;;;5102151;27;61884;-79
2022/05/05 05:04:35;;;;;;;;;8.00;6.50;;;;;;;;5103698;27;61810;-80
2022/05/05 05:07:00;;;;;;;;;9.00;7.75;;;;;;;;5103822;27;61714;-80
2022/05/05 05:09:26;;;;;;;;;13.00;9.75;;;;;;;;5101950;27;62562;-80
2022/05/05 05:11:51;;;;;;;;;10.50;8.00;;;;;;;;5103429;27;61665;-80
2022/05/05 05:14:16;;;;;;;;;17.25;10.25;;;;;;;;5103265;27;61941;-80
2022/05/05 05:16:41;;;;;;;;;13.75;10.00;;;;;;;;5104961;27;61759;-81
2022/05/05 05:19:07;;;;;;;;;12.50;10.50;;;;;;;;5104514;27;61893;-80
2022/05/05 05:21:32;;;;;;;;;13.00;7.75;;;;;;;;5104326;27;61782;-80
2022/05/05 05:23:57;;;;;;;;;18.75;12.00;;;;;;;;5104543;27;61936;-80
2022/05/05 05:26:23;;;;;;;;;10.75;10.50;;;;;;;;5103605;27;61762;-80
2022/05/05 05:28:48;;;;;;;;;15.25;11.00;;;;;;;;5103562;27;61834;-80
2022/05/05 05:31:13;;;;;;;;;13.50;10.75;;;;;;;;5104782;27;61756;-81
2022/05/05 05:33:38;;;;;;;;;16.00;12.00;;;;;;;;5102850;27;61805;-80
2022/05/05 05:36:04;;;;;;;;;19.50;10.75;;;;;;;;5104237;27;61971;-80
2022/05/05 05:38:29;;;;;;;;;10.75;10.75;;;;;;;;5102510;27;62771;-80
2022/05/05 05:40:54;;;;;;;;;14.00;11.75;;;;;;;;5104157;27;61765;-80
2022/05/05 05:43:20;;;;;;;;;14.50;11.00;;;;;;;;5103380;27;62544;-80
2022/05/05 05:45:45;;;;;;;;;19.50;16.25;;;;;;;;5102032;27;61830;-80
2022/05/05 05:48:10;;;;;;;;;15.25;9.75;;;;;;;;5103814;27;62033;-81
2022/05/05 05:50:37;;;;;;;;;9.00;7.00;;;;;;;;5103980;27;61924;-80
2022/05/05 05:53:02;;;;;;;;;13.00;9.00;;;;;;;;5103355;27;61979;-79
2022/05/05 05:55:27;;;;;;;;;14.00;10.00;;;;;;;;5104643;27;61858;-80
2022/05/05 05:57:53;;;;;;;;;15.75;13.50;;;;;;;;5103484;27;62685;-81
2022/05/05 06:00:18;;;;;;;;;16.75;13.75;;;;;;;;5103968;27;61886;-81
2022/05/05 06:05:27;;;;;;;;;9.00;8.75;;;;;;;;5103501;27;62062;-80
2022/05/05 06:08:03;;;;;;;;;23.75;12.25;;;;;;;;5102094;27;61988;-80
2022/05/05 06:10:28;;;;;;;;;17.25;14.75;;;;;;;;5103891;27;61902;-81
2022/05/05 06:12:54;;;;;;;;;19.00;11.50;;;;;;;;5103811;27;61716;-81
2022/05/05 06:15:19;;;;;;;;;12.75;9.50;;;;;;;;5104329;27;61737;-78
2022/05/05 06:17:44;;;;;;;;;16.25;14.25;;;;;;;;5100858;27;62516;-78
2022/05/05 06:20:10;;;;;;;;;11.00;10.00;;;;;;;;5102065;27;61741;-75
2022/05/05 06:22:37;;;;;;;;;16.25;15.25;;;;;;;;5103352;27;61747;-76
2022/05/05 06:25:03;;;;;;;;;19.50;15.75;;;;;;;;5103894;27;61759;-76
2022/05/05 06:27:28;;;;;;;;;20.50;12.75;;;;;;;;5101559;27;61715;-79
2022/05/05 06:29:54;;;;;;;;;10.75;10.75;;;;;;;;5102260;27;61818;-76
2022/05/05 06:32:19;;;;;;;;;13.75;11.75;;;;;;;;5097963;27;62215;-78
2022/05/05 06:34:44;;;;;;;;;14.25;10.75;;;;;;;;5097897;27;61837;-79
2022/05/05 06:37:09;;;;;;;;;12.50;11.00;;;;;;;;5101298;27;61751;-79
2022/05/05 06:39:35;;;;;;;;;19.75;13.25;;;;;;;;5102486;27;61751;-78
2022/05/05 06:42:01;;;;;;;;;12.75;11.75;;;;;;;;5102271;27;61870;-77
2022/05/05 06:44:26;;;;;;;;;15.50;13.25;;;;;;;;5102265;27;62028;-78
2022/05/05 06:46:51;;;;;;;;;17.75;13.50;;;;;;;;5102421;27;61879;-77
2022/05/05 06:49:19;;;;;;;;;21.50;11.50;;;;;;;;5102901;27;61892;-80
2022/05/05 06:51:45;;;;;;;;;17.75;11.75;;;;;;;;5101046;27;61723;-80
2022/05/05 06:54:10;;;;;;;;;13.00;9.75;;;;;;;;5102579;27;61818;-82
2022/05/05 06:56:35;;;;;;;;;18.25;11.50;;;;;;;;5101832;27;61769;-78
2022/05/05 06:59:01;;;;;;;;;13.75;11.50;;;;;;;;5101032;27;62078;-78
2022/05/05 07:06:53;;;;;;;;;17.75;11.75;;;;;;;;5098836;27;62306;-80
2022/05/05 07:12:03;;;;;;;;;13.25;9.00;;;;;;;;5102835;27;61865;-79
2022/05/05 07:14:28;;;;;;;;;16.25;13.00;;;;;;;;5101960;27;62125;-79
2022/05/05 07:16:53;;;;;;;;;18.25;13.75;;;;;;;;5102507;27;61730;-79
2022/05/05 07:19:19;;;;;;;;;15.25;9.25;;;;;;;;5102320;27;61729;-79
2022/05/05 07:21:44;;;;;;;;;12.50;12.25;;;;;;;;5101490;27;61955;-79
2022/05/05 07:24:09;;;;;;;;;22.75;16.25;;;;;;;;5101164;27;62030;-79
2022/05/05 07:26:35;;;;;;;;;16.25;12.50;;;;;;;;5101812;27;62123;-78
2022/05/05 07:29:00;;;;;;;;;16.00;13.50;;;;;;;;5104867;27;61877;-81
2022/05/05 07:31:26;;;;;;;;;21.00;11.25;;;;;;;;5103763;27;61727;-78
2022/05/05 07:33:51;;;;;;;;;15.50;13.00;;;;;;;;5099046;27;61737;-80
2022/05/05 07:36:17;;;;;;;;;11.50;11.50;;;;;;;;5099291;27;62443;-79
2022/05/05 07:38:52;;;;;;;;;20.50;15.00;;;;;;;;5101169;27;62094;-79
2022/05/05 07:41:17;;;;;;;;;12.00;10.50;;;;;;;;5083124;27;62161;-81
2022/05/05 07:43:42;;;;;;;;;12.00;9.25;;;;;;;;5097185;27;61865;-77
2022/05/05 07:46:08;;;;;;;;;19.25;12.75;;;;;;;;5099051;27;61755;-79
2022/05/05 07:48:33;;;;;;;;;16.25;13.50;;;;;;;;5102033;27;62102;-80
2022/05/05 07:50:59;;;;;;;;;13.50;12.25;;;;;;;;5101198;27;61789;-80
2022/05/05 07:53:24;;;;;;;;;15.50;12.00;;;;;;;;5102231;27;62648;-80
2022/05/05 07:55:49;;;;;;;;;15.25;12.50;;;;;;;;5101781;27;61777;-77
2022/05/05 07:58:15;;;;;;;;;17.00;11.00;;;;;;;;5102042;27;62306;-81
2022/05/05 08:00:40;;;;;;;;;16.50;11.50;;;;;;;;5101167;27;62168;-79
2022/05/05 08:03:05;;;;;;;;;16.75;13.25;;;;;;;;5102090;27;61830;-77
2022/05/05 08:05:31;;;;;;;;;17.00;12.25;;;;;;;;5101138;27;62221;-79
2022/05/05 08:07:56;;;;;;;;;16.00;14.75;;;;;;;;5101241;27;61886;-79
2022/05/05 08:10:21;;;;;;;;;20.75;12.75;;;;;;;;5104261;27;61863;-79
2022/05/05 08:12:47;;;;;;;;;13.00;10.00;;;;;;;;5105203;27;61988;-80
2022/05/05 08:15:13;;;;;;;;;14.75;12.00;;;;;;;;5104263;27;63366;-78
2022/05/05 08:17:39;;;;;;;;;18.25;14.00;;;;;;;;5105128;27;61759;-84
2022/05/05 08:20:05;;;;;;;;;17.50;12.75;;;;;;;;5103993;27;62369;-79
2022/05/05 08:22:31;;;;;;;;;19.25;13.50;;;;;;;;5103011;27;62012;-79
2022/05/05 08:30:24;;;;;;;;;12.75;12.25;;;;;;;;5105205;27;62055;-80
2022/05/05 08:32:49;;;;;;;;;12.00;11.75;;;;;;;;5105948;27;61749;-79
2022/05/05 08:35:14;;;;;;;;;13.75;13.50;;;;;;;;5104833;27;61857;-80
2022/05/05 08:37:40;;;;;;;;;17.00;10.00;;;;;;;;5103847;27;62166;-80
2022/05/05 08:40:06;;;;;;;;;7.50;7.50;;;;;;;;5105355;27;61825;-81
2022/05/05 08:42:31;;;;;;;;;13.75;9.50;;;;;;;;5105753;27;62054;-80
2022/05/05 08:45:00;;;;;;;;;9.25;8.50;;;;;;;;5104826;27;63224;-81
2022/05/05 08:47:26;;;;;;;;;9.25;7.50;;;;;;;;5104002;27;61775;-82
2022/05/05 08:50:01;;;;;;;;;11.25;10.25;;;;;;;;5104613;27;61963;-82
2022/05/05 08:52:30;;;;;;;;;7.50;6.50;;;;;;;;5105174;27;62501;-81
2022/05/05 08:54:56;;;;;;;;;8.75;8.50;;;;;;;;5103629;27;64539;-79
2022/05/05 08:57:22;;;;;;;;;13.00;11.75;;;;;;;;5103891;27;62094;-78
2022/05/05 08:59:47;;;;;;;;;12.00;8.75;;;;;;;;5104557;27;61872;-81
2022/05/05 09:02:12;;;;;;;;;10.25;8.00;;;;;;;;5105483;27;61847;-82
2022/05/05 09:04:42;;;;;;;;;8.50;8.50;;;;;;;;5103555;27;63062;-75
2022/05/05 09:07:07;;;;;;;;;6.75;6.75;;;;;;;;5103348;27;61942;-76
2022/05/05 09:09:33;;;;;;;;;7.00;6.50;;;;;;;;5104054;27;62118;-78
2022/05/05 09:12:04;;;;;;;;;10.00;7.75;;;;;;;;5103327;27;62181;-81
2022/05/05 09:14:46;;;;;;;;;12.00;6.25;;;;;;;;5102129;27;62721;-75
2022/05/05 09:17:13;;;;;;;;;8.25;5.25;;;;;;;;5095872;27;62042;-77
2022/05/05 09:19:40;;;;;;;;;6.25;4.75;;;;;;;;5099369;27;61875;-75
2022/05/05 09:22:06;;;;;;;;;4.75;4.75;;;;;;;;5104064;27;61971;-76
2022/05/05 09:24:34;;;;;;;;;5.25;4.00;;;;;;;;5101525;27;63659;-74
2022/05/05 09:27:13;;;;;;;;;5.50;3.25;;;;;;;;5101453;27;62115;-75
2022/05/05 09:29:39;;;;;;;;;6.25;4.00;;;;;;;;5100825;27;61871;-77
2022/05/05 09:32:09;;;;;;;;;7.25;5.50;;;;;;;;5104350;27;61756;-77
2022/05/05 09:34:35;;;;;;;;;7.50;6.25;;;;;;;;5103522;27;62580;-74
2022/05/05 09:37:19;;;;;;;;;5.50;5.50;;;;;;;;5103691;27;62510;-75
2022/05/05 09:39:44;;;;;;;;;6.00;6.00;;;;;;;;5101192;27;61802;-76
2022/05/05 09:42:09;;;;;;;;;3.75;3.50;;;;;;;;5108711;27;62661;-77
2022/05/05 09:44:43;;;;;;;;;4.00;4.00;;;;;;;;5102576;27;63329;-76
2022/05/05 09:47:19;;;;;;;;;3.00;2.00;;;;;;;;5101523;27;62060;-77
2022/05/05 09:50:04;;;;;;;;;4.00;3.00;;;;;;;;5099913;27;62081;-74
2022/05/05 09:58:03;;;;;;;;;7.75;3.75;;;;;;;;5101273;27;61814;-76
2022/05/05 10:05:45;;;;;;;;;3.75;3.75;;;;;;;;5099115;27;63102;-76
2022/05/05 10:08:14;;;;;;;;;7.25;3.50;;;;;;;;5100254;27;61951;-75
2022/05/05 10:10:40;;;;;;;;;4.00;2.75;;;;;;;;5102001;27;61987;-76
2022/05/05 10:13:07;;;;;;;;;5.00;4.00;;;;;;;;5101009;27;61886;-76
2022/05/05 10:15:35;;;;;;;;;8.25;4.00;;;;;;;;5101748;27;62183;-76
2022/05/05 10:18:03;;;;;;;;;5.25;4.00;;;;;;;;5100956;27;62233;-75
2022/05/05 10:20:28;;;;;;;;;6.50;1.50;;;;;;;;5101953;27;61888;-76
2022/05/05 10:23:06;;;;;;;;;4.75;3.25;;;;;;;;5101313;27;61834;-76
2022/05/05 10:25:35;;;;;;;;;4.00;4.00;;;;;;;;5099446;27;63845;-75
2022/05/05 10:28:00;;;;;;;;;4.25;3.00;;;;;;;;5101399;27;62477;-76
2022/05/05 10:30:35;;;;;;;;;9.00;7.75;;;;;;;;5101727;27;61990;-76
2022/05/05 10:33:06;;;;;;;;;3.00;3.00;;;;;;;;5101391;27;61758;-76
2022/05/05 10:35:39;;;;;;;;;4.75;3.75;;;;;;;;5099988;27;63667;-78
2022/05/05 10:38:24;;;;;;;;;2.75;2.25;;;;;;;;5100778;27;61904;-78
2022/05/05 10:40:49;;;;;;;;;4.00;4.00;;;;;;;;5099401;27;61916;-77
2022/05/05 10:43:28;;;;;;;;;5.75;4.00;;;;;;;;5099907;27;62049;-77
2022/05/05 10:45:54;;;;;;;;;2.00;2.00;;;;;;;;5099193;27;61820;-78
2022/05/05 10:48:29;;;;;;;;;5.00;2.25;;;;;;;;5101738;27;62022;-78
2022/05/05 10:51:04;;;;;;;;;3.75;3.75;;;;;;;;5101998;27;62068;-77
2022/05/05 10:53:33;;;;;;;;;2.75;2.75;;;;;;;;5099516;27;61854;-76
2022/05/05 10:55:59;;;;;;;;;3.75;1.75;;;;;;;;5100600;27;62753;-77
2022/05/05 10:58:44;;;;;;;;;2.00;1.25;;;;;;;;5101915;27;62198;-75
2022/05/05 11:01:09;;;;;;;;;3.00;3.00;;;;;;;;5101133;27;62021;-78
2022/05/05 11:03:34;;;;;;;;;3.00;3.00;;;;;;;;5102127;27;61775;-80
2022/05/05 11:06:15;;;;;;;;;3.25;1.75;;;;;;;;5101246;27;63015;-77
2022/05/05 11:08:53;;;;;;;;;4.00;4.00;;;;;;;;5099710;27;61800;-75
2022/05/05 11:21:31;;;;;;;;;2.25;2.25;;;;;;;;5101921;27;61813;-77
2022/05/05 11:22:41;;;;;;;;;3.75;2.00;;;;;;;;5093316;27;61853;-77
2022/05/05 11:25:07;;;;;;;;;1.00;1.00;;;;;;;;5100519;27;61952;-78
2022/05/05 11:27:32;;;;;;;;;2.00;2.00;;;;;;;;5102033;27;61849;-79
2022/05/05 11:29:59;;;;;;;;;4.00;4.00;;;;;;;;5102764;27;61907;-77
2022/05/05 11:32:32;;;;;;;;;3.00;2.00;;;;;;;;5102402;27;62000;-77
2022/05/05 11:34:58;;;;;;;;;2.00;2.00;;;;;;;;5102774;27;61783;-78
2022/05/05 11:37:27;;;;;;;;;1.00;1.00;;;;;;;;5101966;27;61706;-78
2022/05/05 11:39:52;;;;;;;;;0.00;0.00;;;;;;;;5101256;27;61814;-78
2022/05/05 11:42:18;;;;;;;;;1.75;1.75;;;;;;;;5101223;27;61899;-79
2022/05/05 11:44:44;;;;;;;;;2.25;1.75;;;;;;;;5102404;27;61823;-79
2022/05/05 11:47:11;;;;;;;;;3.00;2.00;;;;;;;;5100337;27;63903;-77
2022/05/05 11:49:36;;;;;;;;;0.25;0.25;;;;;;;;5097046;27;61786;-77
2022/05/05 11:52:02;;;;;;;;;2.00;2.00;;;;;;;;5100421;27;61811;-77
2022/05/05 11:54:28;;;;;;;;;4.50;3.25;;;;;;;;5099923;27;62058;-76
2022/05/05 11:56:54;;;;;;;;;4.00;2.00;;;;;;;;5101757;27;62837;-76
2022/05/05 12:02:06;;;;;;;;;1.00;1.00;;;;;;;;5100978;27;61885;-76
2022/05/05 12:04:34;;;;;;;;;2.25;2.00;;;;;;;;5099358;27;62071;-76
2022/05/05 12:07:00;;;;;;;;;1.00;1.00;;;;;;;;5098055;27;63382;-76
2022/05/05 12:09:26;;;;;;;;;1.50;1.50;;;;;;;;5099975;27;61945;-76
2022/05/05 12:11:51;;;;;;;;;1.00;1.00;;;;;;;;5101916;27;62142;-75
2022/05/05 12:14:22;;;;;;;;;4.00;1.00;;;;;;;;5100476;27;62243;-77
2022/05/05 12:16:48;;;;;;;;;2.00;1.25;;;;;;;;5102212;27;61881;-76
2022/05/05 12:19:14;;;;;;;;;1.50;1.50;;;;;;;;5099158;27;62153;-75
2022/05/05 12:21:53;;;;;;;;;4.25;2.75;;;;;;;;5100751;27;62094;-75
2022/05/05 12:24:20;;;;;;;;;1.00;1.00;;;;;;;;5110826;27;62020;-76
2022/05/05 12:26:45;;;;;;;;;0.00;0.00;;;;;;;;5107301;27;62262;-76
2022/05/05 12:29:13;;;;;;;;;2.00;2.00;;;;;;;;5103229;27;61829;-76
2022/05/05 12:31:38;;;;;;;;;1.75;1.00;;;;;;;;5101039;27;61701;-76
2022/05/05 12:34:03;;;;;;;;;2.00;1.00;;;;;;;;5099364;27;61924;-77
2022/05/05 12:36:29;;;;;;;;;1.25;1.25;;;;;;;;5099458;27;62109;-75
2022/05/05 12:39:10;;;;;;;;;1.25;1.25;;;;;;;;5112200;27;61895;-75
2022/05/05 12:41:36;;;;;;;;;2.00;2.00;;;;;;;;5107002;27;61891;-75
2022/05/05 12:44:08;;;;;;;;;2.00;0.50;;;;;;;;5106875;27;61952;-78
2022/05/05 12:46:33;;;;;;;;;1.00;1.00;;;;;;;;5097571;27;63812;-76
2022/05/05 12:48:59;;;;;;;;;14.00;9.50;;;;;;;;5095655;27;61935;-75
2022/05/05 12:51:28;;;;;;;;;2.00;2.00;;;;;;;;5099626;27;61932;-76
2022/05/05 12:59:36;;;;;;;;;2.25;2.00;;;;;;;;5102760;27;61790;-76
2022/05/05 13:02:01;;;;;;;;;1.00;1.00;;;;;;;;5104768;27;61916;-76
2022/05/05 13:04:26;;;;;;;;;1.00;1.00;;;;;;;;5105112;27;61832;-76
2022/05/05 13:06:52;;;;;;;;;0.25;0.25;;;;;;;;5102721;27;61871;-76
2022/05/05 13:09:17;;;;;;;;;3.00;1.00;;;;;;;;5103248;27;62533;-76
2022/05/05 13:11:44;;;;;;;;;1.00;0.75;;;;;;;;5120306;27;62866;-76
2022/05/05 13:14:10;;;;;;;;;1.75;0.75;;;;;;;;5103357;27;61716;-76
2022/05/05 13:16:36;;;;;;;;;1.50;1.00;;;;;;;;5100504;27;63337;-76
2022/05/05 13:19:02;;;;;;;;;0.50;0.50;;;;;;;;5102774;27;62061;-76
2022/05/05 13:21:27;;;;;;;;;1.00;1.00;;;;;;;;5102748;27;62148;-75
2022/05/05 13:23:53;;;;;;;;;1.00;1.00;;;;;;;;5106125;27;61857;-76
2022/05/05 13:26:18;;;;;;;;;1.00;1.00;;;;;;;;5108342;27;62391;-76
2022/05/05 13:28:44;;;;;;;;;4.00;2.00;;;;;;;;5102480;27;61842;-76
2022/05/05 13:31:09;;;;;;;;;2.50;1.25;;;;;;;;5101472;27;61980;-76
2022/05/05 13:33:35;;;;;;;;;2.25;1.50;;;;;;;;5102488;27;62177;-76
2022/05/05 13:36:00;;;;;;;;;2.00;2.00;;;;;;;;5102105;27;62769;-76
2022/05/05 13:38:26;;;;;;;;;1.00;1.00;;;;;;;;5102718;27;61890;-77
2022/05/05 13:40:51;;;;;;;;;4.50;1.00;;;;;;;;5102991;27;61739;-76
2022/05/05 13:43:17;;;;;;;;;0.75;0.75;;;;;;;;5102860;27;62211;-80
2022/05/05 13:45:42;;;;;;;;;1.25;1.25;;;;;;;;5102101;27;61882;-78
2022/05/05 13:48:08;;;;;;;;;2.75;1.75;;;;;;;;5104243;27;61766;-78
2022/05/05 13:50:33;;;;;;;;;1.00;1.00;;;;;;;;5102194;27;62068;-79
2022/05/05 13:52:58;;;;;;;;;1.00;1.00;;;;;;;;5103457;27;61818;-79
2022/05/05 13:55:26;;;;;;;;;2.50;1.00;;;;;;;;5104129;27;61870;-79
2022/05/05 13:57:51;;;;;;;;;1.00;0.00;;;;;;;;5104030;27;61933;-79
2022/05/05 14:00:16;;;;;;;;;1.00;1.00;;;;;;;;5102416;27;61920;-79
2022/05/05 14:02:42;;;;;;;;;4.50;1.00;;;;;;;;5102536;27;62202;-79
2022/05/05 14:05:08;;;;;;;;;1.33;0.33;;;;;;;;5103019;27;61862;-79
2022/05/05 14:13:02;;;;;;;;;1.00;1.00;;;;;;;;5103464;27;62234;-79
2022/05/05 14:15:28;;;;;;;;;2.00;1.00;;;;;;;;5102736;27;61913;-79
2022/05/05 14:17:53;;;;;;;;;1.67;1.67;;;;;;;;5101081;27;62134;-78
2022/05/05 14:20:19;;;;;;;;;5.00;0.67;;;;;;;;5103218;27;61940;-79
2022/05/05 14:22:44;;;;;;;;;2.00;0.67;;;;;;;;5103004;27;61889;-79
2022/05/05 14:25:10;;;;;;;;;1.33;1.33;;;;;;;;5098337;27;61827;-79
2022/05/05 14:27:36;;;;;;;;;0.00;0.00;;;;;;;;5103885;27;61979;-77
2022/05/05 14:30:02;;;;;;;;;1.00;1.00;;;;;;;;5101805;27;62242;-76
2022/05/05 14:32:28;;;;;;;;;2.00;2.00;;;;;;;;5088044;27;62131;-76
2022/05/05 14:34:53;;;;;;;;;1.67;0.67;;;;;;;;5090131;27;61960;-75
2022/05/05 14:37:19;;;;;;;;;1.00;1.00;;;;;;;;5102702;27;62102;-78
2022/05/05 14:39:44;;;;;;;;;0.33;0.33;;;;;;;;5102503;27;61923;-78
2022/05/05 14:42:09;;;;;;;;;1.00;1.00;;;;;;;;5099209;27;62284;-78
2022/05/05 14:44:35;;;;;;;;;2.67;0.67;;;;;;;;5091750;27;63530;-76
2022/05/05 14:47:00;;;;;;;;;2.00;1.00;;;;;;;;5086602;27;61968;-79
2022/05/05 14:49:25;;;;;;;;;0.33;0.33;;;;;;;;5101854;27;61829;-78
2022/05/05 14:51:50;;;;;;;;;0.67;0.67;;;;;;;;5102709;27;62200;-78
2022/05/05 14:54:16;;;;;;;;;0.00;0.00;;;;;;;;5102580;27;62833;-78
2022/05/05 14:56:41;;;;;;;;;1.33;1.33;;;;;;;;5103660;27;61999;-78
2022/05/05 14:59:07;;;;;;;;;0.67;0.67;;;;;;;;5101798;27;62096;-78
2022/05/05 15:01:32;;;;;;;;;1.33;1.33;;;;;;;;5101240;27;62107;-78
2022/05/05 15:03:57;;;;;;;;;0.67;0.67;;;;;;;;5101040;27;61850;-78
2022/05/05 15:06:22;;;;;;;;;1.00;1.00;;;;;;;;5101169;27;62244;-78
2022/05/05 15:08:48;;;;;;;;;1.33;0.67;;;;;;;;5101999;27;62263;-78
2022/05/05 15:11:13;;;;;;;;;0.00;0.00;;;;;;;;5103294;27;61862;-78
2022/05/05 15:13:39;;;;;;;;;2.00;1.00;;;;;;;;5102816;27;61991;-78
2022/05/05 15:16:04;;;;;;;;;1.00;1.00;;;;;;;;5102214;27;61864;-78
2022/05/05 15:18:29;;;;;;;;;0.67;0.67;;;;;;;;5103732;27;61878;-78
2022/05/05 15:20:55;;;;;;;;;1.00;1.00;;;;;;;;5103202;27;62072;-78
2022/05/05 15:23:22;;;;;;;;;1.00;0.33;;;;;;;;5100801;27;63271;-78
2022/05/05 15:25:47;;;;;;;;;2.00;1.00;;;;;;;;5103507;27;61949;-77
2022/05/05 15:28:12;;;;;;;;;2.67;2.67;;;;;;;;5102735;27;61820;-78
2022/05/05 15:30:38;;;;;;;;;0.00;0.00;;;;;;;;5101417;27;61913;-78
2022/05/05 15:33:03;;;;;;;;;1.33;0.67;;;;;;;;5102214;27;61849;-78
2022/05/05 15:35:30;;;;;;;;;0.67;0.67;;;;;;;;5102962;27;61782;-78